createdAt,value
2022-09-12T00:01:22.251Z,100869.13
2022-09-12T00:03:52.714Z,100874.16
2022-09-12T00:06:29.703Z,100869.94
2022-09-12T00:08:59.354Z,100870.75
2022-09-12T00:11:26.766Z,100866.72
2022-09-12T00:13:57.720Z,100865.03
2022-09-12T00:16:26.423Z,100867.81
2022-09-12T00:18:53.594Z,100871.63
2022-09-12T00:21:21.401Z,100870.91
2022-09-12T00:23:49.098Z,100868.81
2022-09-12T00:26:17.905Z,100861.53
2022-09-12T00:28:45.679Z,100857.78
2022-09-12T00:31:15.896Z,100867.91
2022-09-12T00:33:42.938Z,100864.53
2022-09-12T00:36:12.637Z,100861.50
2022-09-12T00:38:41.849Z,100863.22
2022-09-12T00:41:15.978Z,100854.59
2022-09-12T00:43:53.178Z,100859.41
2022-09-12T00:46:37.276Z,100852.56
2022-09-12T00:49:18.749Z,100849.97
2022-09-12T00:51:51.359Z,100851.28
2022-09-12T00:54:23.946Z,100841.47
2022-09-12T00:56:52.741Z,100845.94
2022-09-12T00:59:27.501Z,100838.75
2022-09-12T01:01:54.631Z,100837.75
2022-09-12T01:04:24.483Z,100834.78
2022-09-12T01:06:52.612Z,100829.72
2022-09-12T01:09:22.712Z,100837.19
2022-09-12T01:11:51.565Z,100832.06
2022-09-12T01:14:19.371Z,100825.34
2022-09-12T01:16:47.275Z,100823.69
2022-09-12T01:19:32.125Z,100826.28
2022-09-12T01:22:13.481Z,100821.53
2022-09-12T01:24:51.946Z,100821.66
2022-09-12T01:27:43.926Z,100831.00
2022-09-12T01:30:38.878Z,100833.81
2022-09-12T01:33:17.553Z,100829.88
2022-09-12T01:36:23.210Z,100831.75
2022-09-12T01:39:03.326Z,100823.06
2022-09-12T01:41:49.862Z,100825.22
2022-09-12T01:44:26.040Z,100828.97
2022-09-12T01:47:14.472Z,100827.19
2022-09-12T01:49:57.235Z,100822.69
2022-09-12T01:52:38.213Z,100822.59
2022-09-12T01:55:22.658Z,100816.53
2022-09-12T01:57:57.431Z,100822.03
2022-09-12T02:00:24.858Z,100817.41
2022-09-12T02:02:58.465Z,100814.25
2022-09-12T02:05:32.438Z,100806.78
2022-09-12T02:08:08.028Z,100810.44
2022-09-12T02:10:43.383Z,100805.66
2022-09-12T02:13:16.790Z,100800.72
2022-09-12T02:15:50.729Z,100799.03
2022-09-12T02:18:18.603Z,100801.66
2022-09-12T02:20:49.099Z,100798.69
2022-09-12T02:23:26.593Z,100791.97
2022-09-12T02:25:57.841Z,100798.75
2022-09-12T02:28:29.910Z,100791.97
2022-09-12T02:31:08.485Z,100788.59
2022-09-12T02:33:48.407Z,100793.94
2022-09-12T02:36:27.531Z,100790.75
2022-09-12T02:38:55.801Z,100791.91
2022-09-12T02:41:22.943Z,100787.19
2022-09-12T02:43:51.520Z,100791.13
2022-09-12T02:46:32.003Z,100791.97
2022-09-12T02:48:58.662Z,100792.34
2022-09-12T02:51:26.497Z,100793.47
2022-09-12T02:53:53.393Z,100791.50
2022-09-12T02:56:27.006Z,100788.81
2022-09-12T02:58:55.329Z,100787.22
2022-09-12T03:01:49.399Z,100786.56
2022-09-12T03:04:48.017Z,100788.16
2022-09-12T03:07:29.894Z,100786.72
2022-09-12T03:10:14.923Z,100787.22
2022-09-12T03:12:52.431Z,100795.78
2022-09-12T03:15:34.860Z,100790.28
2022-09-12T03:18:38.954Z,100786.19
2022-09-12T03:21:30.576Z,100783.13
2022-09-12T03:24:11.106Z,100791.03
2022-09-12T03:27:05.345Z,100779.66
2022-09-12T03:29:33.149Z,100794.00
2022-09-12T03:31:59.624Z,100787.13
2022-09-12T03:34:27.722Z,100783.97
2022-09-12T03:36:55.486Z,100785.06
2022-09-12T03:39:24.397Z,100788.97
2022-09-12T03:41:51.241Z,100787.28
2022-09-12T03:44:18.022Z,100785.78
2022-09-12T03:46:44.848Z,100785.06
2022-09-12T03:49:11.977Z,100785.78
2022-09-12T03:51:39.744Z,100786.09
2022-09-12T03:54:06.843Z,100798.69
2022-09-12T03:56:33.370Z,100796.91
2022-09-12T03:58:59.883Z,100796.38
2022-09-12T04:01:26.436Z,100781.63
2022-09-12T04:03:52.993Z,100782.34
2022-09-12T04:06:21.759Z,100781.97
2022-09-12T04:08:50.446Z,100787.50
2022-09-12T04:11:18.947Z,100782.91
2022-09-12T04:13:46.775Z,100781.72
2022-09-12T04:16:15.002Z,100779.53
2022-09-12T04:18:41.575Z,100783.59
2022-09-12T04:21:11.149Z,100781.72
2022-09-12T04:23:38.048Z,100770.59
2022-09-12T04:26:07.938Z,100776.28
2022-09-12T04:28:37.222Z,100781.63
2022-09-12T04:31:09.316Z,100780.22
2022-09-12T04:33:36.508Z,100778.50
2022-09-12T04:36:23.146Z,100776.50
2022-09-12T04:38:50.720Z,100776.38
2022-09-12T04:41:24.242Z,100771.63
2022-09-12T04:43:58.101Z,100777.28
2022-09-12T04:46:26.189Z,100778.41
2022-09-12T04:48:56.585Z,100781.88
2022-09-12T04:51:29.588Z,100785.53
2022-09-12T04:54:00.414Z,100787.13
2022-09-12T04:56:28.725Z,100781.44
2022-09-12T04:59:00.414Z,100782.88
2022-09-12T05:01:28.715Z,100785.78
2022-09-12T05:03:56.666Z,100784.28
2022-09-12T05:06:25.691Z,100782.41
2022-09-12T05:08:53.393Z,100787.31
2022-09-12T05:11:26.614Z,100788.66
2022-09-12T05:13:55.218Z,100799.75
2022-09-12T05:16:22.853Z,100797.63
2022-09-12T05:18:50.265Z,100798.66
2022-09-12T05:21:23.138Z,100797.75
2022-09-12T05:23:59.472Z,100800.19
2022-09-12T05:26:27.083Z,100804.28
2022-09-12T05:28:56.246Z,100796.69
2022-09-12T05:31:27.783Z,100797.50
2022-09-12T05:33:55.922Z,100809.59
2022-09-12T05:36:23.946Z,100806.31
2022-09-12T05:38:50.703Z,100813.47
2022-09-12T05:41:24.997Z,100816.53
2022-09-12T05:43:53.830Z,100817.69
2022-09-12T05:46:22.364Z,100822.34
2022-09-12T05:48:55.112Z,100817.22
2022-09-12T05:51:26.828Z,100824.88
2022-09-12T05:53:56.062Z,100819.38
2022-09-12T05:56:25.158Z,100830.59
2022-09-12T05:59:00.289Z,100834.09
2022-09-12T06:01:30.052Z,100824.25
2022-09-12T06:04:00.724Z,100828.69
2022-09-12T06:06:29.488Z,100830.41
2022-09-12T06:08:59.016Z,100834.97
2022-09-12T06:11:29.259Z,100830.69
2022-09-12T06:13:57.510Z,100831.47
2022-09-12T06:16:27.093Z,100827.94
2022-09-12T06:18:59.418Z,100829.47
2022-09-12T06:21:26.811Z,100823.94
2022-09-12T06:23:55.230Z,100824.59
2022-09-12T06:26:23.466Z,100816.81
2022-09-12T06:28:50.537Z,100815.88
2022-09-12T06:31:19.847Z,100816.44
2022-09-12T06:33:48.783Z,100819.44
2022-09-12T06:36:27.091Z,100825.28
2022-09-12T06:39:10.585Z,100820.19
2022-09-12T06:41:41.600Z,100821.97
2022-09-12T06:44:16.335Z,100818.84
2022-09-12T06:46:43.149Z,100815.41
2022-09-12T06:49:10.328Z,100810.22
2022-09-12T06:51:36.997Z,100815.41
2022-09-12T06:54:05.329Z,100808.25
2022-09-12T06:56:31.928Z,100816.22
2022-09-12T06:58:59.543Z,100808.53
2022-09-12T07:01:31.539Z,100805.28
2022-09-12T07:04:00.532Z,100807.78
2022-09-12T07:06:32.563Z,100810.75
2022-09-12T07:09:01.023Z,100806.56
2022-09-12T07:11:31.820Z,100809.03
2022-09-12T07:13:59.859Z,100817.44
2022-09-12T07:16:26.512Z,100811.59
2022-09-12T07:18:55.634Z,100824.19
2022-09-12T07:21:22.943Z,100815.31
2022-09-12T07:23:52.068Z,100825.06
2022-09-12T07:26:18.973Z,100828.25
2022-09-12T07:28:52.034Z,100831.16
2022-09-12T07:31:19.344Z,100828.59
2022-09-12T07:33:45.994Z,100827.34
2022-09-12T07:36:16.173Z,100830.34
2022-09-12T07:38:43.890Z,100832.03
2022-09-12T07:41:21.096Z,100836.97
2022-09-12T07:43:48.314Z,100837.44
2022-09-12T07:46:15.431Z,100834.56
2022-09-12T07:48:42.071Z,100825.22
2022-09-12T07:51:11.314Z,100837.53
2022-09-12T07:53:40.803Z,100833.94
2022-09-12T07:56:10.321Z,100835.00
2022-09-12T07:58:38.265Z,100836.06
2022-09-12T08:01:12.893Z,100837.28
2022-09-12T08:03:41.483Z,100842.59
2022-09-12T08:06:17.827Z,100837.22
2022-09-12T08:08:44.343Z,100829.91
2022-09-12T08:11:13.007Z,100834.03
2022-09-12T08:13:41.733Z,100819.31
2022-09-12T08:16:17.012Z,100823.75
2022-09-12T08:18:44.295Z,100814.91
2022-09-12T08:21:19.483Z,100817.34
2022-09-12T08:23:47.017Z,100822.28
2022-09-12T08:26:13.929Z,100813.22
2022-09-12T08:28:45.561Z,100816.84
2022-09-12T08:31:14.433Z,100825.59
2022-09-12T08:33:41.647Z,100819.09
2022-09-12T08:36:16.610Z,100822.69
2022-09-12T08:38:45.614Z,100821.22
2022-09-12T08:41:18.049Z,100823.19
2022-09-12T08:44:22.198Z,100825.34
2022-09-12T08:47:11.292Z,100830.28
2022-09-12T08:49:37.714Z,100819.13
2022-09-12T08:52:13.148Z,100814.34
2022-09-12T08:54:39.839Z,100812.97
2022-09-12T08:57:11.708Z,100795.44
2022-09-12T08:59:41.814Z,100803.41
2022-09-12T09:02:39.670Z,100801.22
2022-09-12T09:05:29.872Z,100787.19
2022-09-12T09:08:15.481Z,100784.47
2022-09-12T09:10:59.689Z,100770.75
2022-09-12T09:14:05.623Z,100768.81
2022-09-12T09:16:44.756Z,100765.19
2022-09-12T09:19:17.418Z,100772.34
2022-09-12T09:22:01.140Z,100761.31
2022-09-12T09:24:36.974Z,100766.16
2022-09-12T09:27:41.985Z,100761.00
2022-09-12T09:30:15.885Z,100767.19
2022-09-12T09:32:43.898Z,100761.31
2022-09-12T09:35:36.360Z,100754.34
2022-09-12T09:38:29.117Z,100754.78
2022-09-12T09:41:24.478Z,100752.28
2022-09-12T09:43:51.181Z,100750.34
2022-09-12T09:46:18.750Z,100746.44
2022-09-12T09:48:48.797Z,100747.03
2022-09-12T09:51:21.339Z,100745.38
2022-09-12T09:54:00.878Z,100754.75
2022-09-12T09:56:29.206Z,100752.56
2022-09-12T09:58:55.799Z,100752.44
2022-09-12T10:01:22.602Z,100750.22
2022-09-12T10:03:54.569Z,100750.63
2022-09-12T10:06:21.012Z,100744.81
2022-09-12T10:08:48.978Z,100747.59
2022-09-12T10:11:15.593Z,100745.09
2022-09-12T10:13:54.543Z,100746.50
2022-09-12T10:16:27.815Z,100741.94
2022-09-12T10:19:02.762Z,100744.56
2022-09-12T10:21:36.304Z,100742.59
2022-09-12T10:24:20.616Z,100743.72
2022-09-12T10:26:56.607Z,100733.25
2022-09-12T10:29:32.183Z,100726.59
2022-09-12T10:32:03.181Z,100723.31
2022-09-12T10:34:36.390Z,100726.34
2022-09-12T10:37:08.519Z,100719.97
2022-09-12T10:39:37.683Z,100733.81
2022-09-12T10:42:05.579Z,100725.03
2022-09-12T10:44:34.447Z,100714.38
2022-09-12T10:47:21.150Z,100717.66
2022-09-12T10:49:48.261Z,100723.03
2022-09-12T10:52:23.896Z,100712.94
2022-09-12T10:54:51.523Z,100712.41
2022-09-12T10:57:41.750Z,100712.22
2022-09-12T11:00:20.456Z,100718.41
2022-09-12T11:03:16.006Z,100724.41
2022-09-12T11:05:48.346Z,100716.44
2022-09-12T11:08:38.975Z,100705.03
2022-09-12T11:11:29.336Z,100708.88
2022-09-12T11:14:19.946Z,100699.47
2022-09-12T11:16:52.699Z,100698.50
2022-09-12T11:19:50.902Z,100697.38
2022-09-12T11:22:38.530Z,100698.44
2022-09-12T11:25:14.423Z,100696.81
2022-09-12T11:28:18.448Z,100689.94
2022-09-12T11:31:07.037Z,100688.53
2022-09-12T11:33:45.956Z,100687.16
2022-09-12T11:36:25.941Z,100686.91
2022-09-12T11:39:03.214Z,100678.56
2022-09-12T11:41:39.840Z,100677.47
2022-09-12T11:44:22.228Z,100673.66
2022-09-12T11:46:51.953Z,100667.84
2022-09-12T11:49:26.731Z,100664.69
2022-09-12T11:52:16.573Z,100665.16
2022-09-12T11:55:00.774Z,100660.59
2022-09-12T11:57:50.588Z,100668.00
2022-09-12T12:00:20.595Z,100674.69
2022-09-12T12:03:13.990Z,100666.56
2022-09-12T12:05:43.229Z,100667.28
2022-09-12T12:08:11.285Z,100669.31
2022-09-12T12:10:43.379Z,100670.91
2022-09-12T12:13:26.315Z,100668.63
2022-09-12T12:16:00.843Z,100663.09
2022-09-12T12:18:29.771Z,100663.66
2022-09-12T12:21:16.012Z,100666.47
2022-09-12T12:24:01.909Z,100671.25
2022-09-12T12:26:40.595Z,100660.00
2022-09-12T12:29:17.876Z,100661.84
2022-09-12T12:32:01.852Z,100668.16
2022-09-12T12:34:38.603Z,100658.78
2022-09-12T12:37:23.332Z,100659.88
2022-09-12T12:39:50.738Z,100655.75
2022-09-12T12:42:32.612Z,100652.13
2022-09-12T12:44:59.909Z,100645.06
2022-09-12T12:47:31.943Z,100644.69
2022-09-12T12:50:05.474Z,100641.41
2022-09-12T12:52:46.849Z,100647.03
2022-09-12T12:55:35.221Z,100629.94
2022-09-12T12:58:07.092Z,100634.88
2022-09-12T13:00:36.686Z,100633.38
2022-09-12T13:03:06.515Z,100629.22
2022-09-12T13:05:50.317Z,100627.47
2022-09-12T13:08:16.751Z,100621.94
2022-09-12T13:10:56.881Z,100625.09
2022-09-12T13:13:28.519Z,100612.09
2022-09-12T13:15:55.330Z,100612.16
2022-09-12T13:18:27.719Z,100612.69
2022-09-12T13:21:19.266Z,100613.06
2022-09-12T13:24:02.043Z,100599.75
2022-09-12T13:26:33.942Z,100595.00
2022-09-12T13:29:17.905Z,100591.47
2022-09-12T13:32:01.224Z,100589.13
2022-09-12T13:34:37.598Z,100578.78
2022-09-12T13:37:16.162Z,100589.81
2022-09-12T13:40:11.759Z,100574.84
2022-09-12T13:42:51.148Z,100567.78
2022-09-12T13:45:21.898Z,100567.03
2022-09-12T13:48:16.907Z,100563.59
2022-09-12T13:50:52.294Z,100562.03
2022-09-12T13:53:23.738Z,100556.19
2022-09-12T13:55:55.365Z,100544.59
2022-09-12T13:58:21.838Z,100541.31
2022-09-12T14:01:05.854Z,100543.41
2022-09-12T14:03:58.963Z,100537.00
2022-09-12T14:06:27.500Z,100521.56
2022-09-12T14:09:01.264Z,100532.59
2022-09-12T14:11:30.245Z,100533.72
2022-09-12T14:13:57.718Z,100532.44
2022-09-12T14:16:27.268Z,100525.28
2022-09-12T14:18:54.194Z,100523.69
2022-09-12T14:21:34.142Z,100522.22
2022-09-12T14:24:02.380Z,100522.44
2022-09-12T14:26:34.074Z,100513.88
2022-09-12T14:29:02.030Z,100508.91
2022-09-12T14:31:36.802Z,100507.91
2022-09-12T14:34:18.004Z,100505.56
2022-09-12T14:36:47.806Z,100503.53
2022-09-12T14:39:32.160Z,100502.81
2022-09-12T14:42:20.860Z,100519.16
2022-09-12T14:45:01.287Z,100512.19
2022-09-12T14:47:34.772Z,100506.28
2022-09-12T14:50:01.786Z,100494.44
2022-09-12T14:52:34.946Z,100495.59
2022-09-12T14:55:23.799Z,100494.59
2022-09-12T14:58:15.476Z,100494.16
2022-09-12T15:01:06.742Z,100492.81
2022-09-12T15:03:34.764Z,100486.72
2022-09-12T15:06:03.936Z,100486.31
2022-09-12T15:08:31.862Z,100490.59
2022-09-12T15:10:59.331Z,100490.56
2022-09-12T15:13:28.027Z,100476.78
2022-09-12T15:15:56.754Z,100474.59
2022-09-12T15:18:28.901Z,100483.97
2022-09-12T15:20:57.927Z,100476.72
2022-09-12T15:23:28.518Z,100477.34
2022-09-12T15:25:55.131Z,100476.78
2022-09-12T15:28:23.924Z,100479.53
2022-09-12T15:30:53.283Z,100472.41
2022-09-12T15:33:22.750Z,100465.69
2022-09-12T15:35:50.317Z,100462.50
2022-09-12T15:38:16.847Z,100461.38
2022-09-12T15:40:43.603Z,100461.13
2022-09-12T15:43:13.290Z,100452.53
2022-09-12T15:45:42.913Z,100450.34
2022-09-12T15:48:10.009Z,100443.72
2022-09-12T15:50:36.507Z,100448.44
2022-09-12T15:53:03.195Z,100439.25
2022-09-12T15:55:32.204Z,100442.56
2022-09-12T15:58:02.443Z,100439.56
2022-09-12T16:00:31.881Z,100432.53
2022-09-12T16:02:58.393Z,100443.38
2022-09-12T16:05:26.732Z,100438.78
2022-09-12T16:07:54.899Z,100438.16
2022-09-12T16:10:24.325Z,100439.88
2022-09-12T16:12:51.364Z,100435.41
2022-09-12T16:15:21.059Z,100437.50
2022-09-12T16:17:48.065Z,100432.84
2022-09-12T16:20:14.925Z,100431.16
2022-09-12T16:22:42.741Z,100427.44
2022-09-12T16:25:10.161Z,100428.38
2022-09-12T16:27:36.972Z,100438.16
2022-09-12T16:30:06.266Z,100422.28
2022-09-12T16:32:33.117Z,100421.75
2022-09-12T16:34:59.987Z,100422.25
2022-09-12T16:37:26.510Z,100418.03
2022-09-12T16:39:53.760Z,100413.75
2022-09-12T16:42:20.367Z,100412.38
2022-09-12T16:44:47.463Z,100415.53
2022-09-12T16:47:14.674Z,100411.50
2022-09-12T16:49:41.173Z,100403.72
2022-09-12T16:52:08.120Z,100398.75
2022-09-12T16:54:34.716Z,100407.31
2022-09-12T16:57:01.245Z,100405.47
2022-09-12T16:59:27.761Z,100398.56
2022-09-12T17:01:54.362Z,100393.44
2022-09-12T17:04:23.579Z,100380.56
2022-09-12T17:06:51.267Z,100379.91
2022-09-12T17:09:18.541Z,100379.31
2022-09-12T17:11:50.217Z,100380.22
2022-09-12T17:14:17.061Z,100373.16
2022-09-12T17:16:50.805Z,100369.22
2022-09-12T17:19:26.393Z,100366.53
2022-09-12T17:21:54.283Z,100368.75
2022-09-12T17:24:21.230Z,100365.75
2022-09-12T17:26:47.760Z,100358.00
2022-09-12T17:29:15.659Z,100353.22
2022-09-12T17:31:43.894Z,100351.25
2022-09-12T17:34:14.217Z,100348.03
2022-09-12T17:36:44.030Z,100348.47
2022-09-12T17:39:11.594Z,100345.50
2022-09-12T17:41:38.491Z,100347.41
2022-09-12T17:44:07.236Z,100348.75
2022-09-12T17:46:37.220Z,100339.84
2022-09-12T17:49:06.821Z,100342.06
2022-09-12T17:51:34.591Z,100345.91
2022-09-12T17:54:11.598Z,100344.31
2022-09-12T17:56:39.134Z,100349.59
2022-09-12T17:59:13.241Z,100347.81
2022-09-12T18:01:58.697Z,100353.47
2022-09-12T18:04:25.381Z,100347.38
2022-09-12T18:06:52.694Z,100344.25
2022-09-12T18:09:23.221Z,100344.66
2022-09-12T18:11:50.252Z,100338.66
2022-09-12T18:14:17.574Z,100346.66
2022-09-12T18:16:45.096Z,100344.59
2022-09-12T18:19:12.251Z,100344.84
2022-09-12T18:21:39.122Z,100340.41
2022-09-12T18:24:05.692Z,100341.41
2022-09-12T18:26:33.139Z,100331.41
2022-09-12T18:29:00.129Z,100335.41
2022-09-12T18:31:29.046Z,100332.19
2022-09-12T18:33:57.731Z,100322.19
2022-09-12T18:36:24.335Z,100322.56
2022-09-12T18:38:51.234Z,100325.75
2022-09-12T18:41:23.064Z,100322.34
2022-09-12T18:43:57.513Z,100314.03
2022-09-12T18:46:25.165Z,100310.16
2022-09-12T18:48:52.242Z,100311.69
2022-09-12T18:51:25.690Z,100310.03
2022-09-12T18:53:56.035Z,100313.50
2022-09-12T18:56:28.652Z,100310.78
2022-09-12T18:58:56.665Z,100301.91
2022-09-12T19:01:28.559Z,100311.69
2022-09-12T19:03:55.469Z,100301.56
2022-09-12T19:06:26.878Z,100304.03
2022-09-12T19:08:55.262Z,100296.91
2022-09-12T19:11:22.131Z,100287.22
2022-09-12T19:13:50.601Z,100278.72
2022-09-12T19:16:27.455Z,100285.41
2022-09-12T19:18:58.223Z,100280.88
2022-09-12T19:21:28.335Z,100283.50
2022-09-12T19:24:00.934Z,100279.38
2022-09-12T19:26:28.062Z,100283.22
2022-09-12T19:28:55.225Z,100279.03
2022-09-12T19:31:23.259Z,100272.69
2022-09-12T19:33:52.069Z,100272.66
2022-09-12T19:36:44.280Z,100275.97
2022-09-12T19:39:08.443Z,100271.66
2022-09-12T19:41:35.756Z,100276.19
2022-09-12T19:44:04.114Z,100268.22
2022-09-12T19:46:30.911Z,100257.19
2022-09-12T19:48:58.615Z,100253.69
2022-09-12T19:51:25.336Z,100250.00
2022-09-12T19:53:53.258Z,100256.78
2022-09-12T19:56:20.082Z,100252.63
2022-09-12T19:58:51.027Z,100257.81
2022-09-12T20:01:28.328Z,100262.16
2022-09-12T20:03:56.891Z,100256.53
2022-09-12T20:06:24.068Z,100262.97
2022-09-12T20:08:51.663Z,100251.72
2022-09-12T20:11:20.186Z,100253.88
2022-09-12T20:13:47.765Z,100243.56
2022-09-12T20:16:24.237Z,100240.97
2022-09-12T20:18:57.015Z,100238.38
2022-09-12T20:21:30.928Z,100233.03
2022-09-12T20:24:12.154Z,100227.91
2022-09-12T20:26:39.596Z,100235.75
2022-09-12T20:29:06.674Z,100232.56
2022-09-12T20:31:33.608Z,100237.44
2022-09-12T20:34:00.699Z,100235.41
2022-09-12T20:36:28.814Z,100228.97
2022-09-12T20:38:58.123Z,100216.78
2022-09-12T20:41:27.343Z,100215.59
2022-09-12T20:43:55.474Z,100213.91
2022-09-12T20:46:23.665Z,100220.22
2022-09-12T20:48:52.638Z,100206.84
2022-09-12T20:51:20.722Z,100206.13
2022-09-12T20:53:47.970Z,100198.56
2022-09-12T20:56:14.970Z,100192.50
2022-09-12T20:58:44.072Z,100183.28
2022-09-12T21:01:13.989Z,100183.34
2022-09-12T21:03:42.162Z,100170.91
2022-09-12T21:06:12.490Z,100172.72
2022-09-12T21:08:39.768Z,100158.38
2022-09-12T21:11:07.207Z,100152.75
2022-09-12T21:13:34.239Z,100150.75
2022-09-12T21:16:10.338Z,100147.44
2022-09-12T21:18:37.499Z,100146.25
2022-09-12T21:21:05.133Z,100161.66
2022-09-12T21:23:32.048Z,100161.69
2022-09-12T21:25:59.088Z,100156.47
2022-09-12T21:28:26.542Z,100160.81
2022-09-12T21:30:53.438Z,100155.84
2022-09-12T21:33:21.044Z,100163.78
2022-09-12T21:35:49.599Z,100161.25
2022-09-12T21:38:17.161Z,100152.28
2022-09-12T21:40:43.750Z,100149.78
2022-09-12T21:43:12.894Z,100148.00
2022-09-12T21:45:40.675Z,100144.81
2022-09-12T21:48:07.866Z,100140.81
2022-09-12T21:50:34.453Z,100137.38
2022-09-12T21:53:00.935Z,100133.19
2022-09-12T21:55:27.785Z,100123.94
2022-09-12T21:57:54.744Z,100125.19
2022-09-12T22:00:22.430Z,100120.22
2022-09-12T22:02:49.011Z,100124.19
2022-09-12T22:05:16.122Z,100125.97
2022-09-12T22:07:42.642Z,100125.72
2022-09-12T22:10:09.599Z,100120.66
2022-09-12T22:12:36.066Z,100115.59
2022-09-12T22:15:17.526Z,100120.00
2022-09-12T22:17:49.165Z,100108.75
2022-09-12T22:20:15.971Z,100101.81
2022-09-12T22:23:00.913Z,100100.75
2022-09-12T22:25:27.513Z,100094.03
2022-09-12T22:27:54.921Z,100086.28
2022-09-12T22:30:22.655Z,100088.97
2022-09-12T22:32:51.418Z,100079.41
2022-09-12T22:35:19.001Z,100074.16
2022-09-12T22:37:47.490Z,100077.22
2022-09-12T22:40:15.072Z,100075.78
2022-09-12T22:42:41.690Z,100068.44
2022-09-12T22:45:08.782Z,100068.28
2022-09-12T22:47:35.395Z,100070.69
2022-09-12T22:50:02.152Z,100069.84
2022-09-12T22:52:28.646Z,100081.34
2022-09-12T22:54:55.113Z,100072.63
2022-09-12T22:57:21.780Z,100076.72
2022-09-12T22:59:48.679Z,100079.41
2022-09-12T23:02:15.158Z,100079.53
2022-09-12T23:04:42.003Z,100074.38
2022-09-12T23:07:08.515Z,100066.94
2022-09-12T23:09:35.635Z,100070.22
2022-09-12T23:12:03.790Z,100060.94
2022-09-12T23:14:30.389Z,100055.13
2022-09-12T23:16:57.005Z,100051.66
2022-09-12T23:19:23.471Z,100041.84
2022-09-12T23:21:50.454Z,100040.47
2022-09-12T23:24:17.760Z,100037.47
2022-09-12T23:26:44.253Z,100032.94
2022-09-12T23:29:11.301Z,100026.75
2022-09-12T23:31:38.456Z,100029.03
2022-09-12T23:34:05.886Z,100031.28
2022-09-12T23:36:33.483Z,100028.88
2022-09-12T23:39:00.041Z,100027.81
2022-09-12T23:41:27.081Z,100035.22
2022-09-12T23:43:53.932Z,100037.53
2022-09-12T23:46:21.161Z,100030.50
2022-09-12T23:48:47.813Z,100027.88
2022-09-12T23:51:14.878Z,100028.03
2022-09-12T23:53:41.438Z,100030.91
2022-09-12T23:56:08.198Z,100027.88
2022-09-12T23:58:34.785Z,100029.81
